Time;durP1;ratioP1;P1;durP2;ratioP2;P2;SDS_P1;SDS_P2;PMS_P1;PMS_P2;Temp;Humidity;BMP_temperature;BMP_pressure;BME280_temperature;BME280_humidity;BME280_pressure;Samples;Min_cycle;Max_cycle;Signal;HPM_P1;HPM_P2
2021/03/13 00:00:51;;;;;;;0.23;0.23;;;5.70;99.90;;;;;;1963225;72;21077;-77
2021/03/13 00:03:17;;;;;;;0.20;0.20;;;5.70;99.90;;;;;;1963254;72;21647;-76
2021/03/13 00:05:43;;;;;;;0.20;0.20;;;5.70;99.90;;;;;;1962861;72;21511;-76
2021/03/13 00:08:10;;;;;;;1.47;0.25;;;5.70;99.90;;;;;;1962671;73;21450;-76
2021/03/13 00:10:37;;;;;;;0.10;0.10;;;5.70;99.90;;;;;;1962427;73;21485;-76
2021/03/13 00:13:03;;;;;;;0.20;0.20;;;5.80;99.90;;;;;;1962472;72;21381;-76
2021/03/13 00:15:32;;;;;;;0.30;0.30;;;5.80;99.90;;;;;;1962633;72;21105;-75
2021/03/13 00:17:57;;;;;;;0.10;0.10;;;5.90;99.90;;;;;;1962159;73;21130;-76
2021/03/13 00:20:24;;;;;;;0.68;0.30;;;5.90;99.90;;;;;;1962506;73;21050;-76
2021/03/13 00:22:50;;;;;;;0.60;0.45;;;5.90;99.90;;;;;;1962302;72;21517;-76
2021/03/13 00:25:16;;;;;;;0.28;0.25;;;5.90;99.90;;;;;;1963129;72;21466;-76
2021/03/13 00:27:48;;;;;;;0.33;0.20;;;6.00;99.90;;;;;;1962795;73;21453;-76
2021/03/13 00:30:16;;;;;;;1.95;0.40;;;6.10;99.90;;;;;;1962856;73;21058;-77
2021/03/13 00:32:42;;;;;;;0.50;0.28;;;6.10;99.90;;;;;;1962498;72;21067;-77
2021/03/13 00:35:08;;;;;;;1.37;0.40;;;6.00;99.90;;;;;;1963275;72;21070;-76
2021/03/13 00:37:34;;;;;;;0.80;0.30;;;6.00;99.90;;;;;;1963749;72;21168;-77
2021/03/13 00:40:00;;;;;;;0.75;0.30;;;6.00;99.90;;;;;;1963722;72;21066;-77
2021/03/13 00:42:26;;;;;;;0.50;0.20;;;6.00;99.90;;;;;;1963796;72;21074;-78
2021/03/13 00:44:53;;;;;;;1.47;0.50;;;5.90;99.90;;;;;;1963046;72;21060;-78
2021/03/13 00:47:19;;;;;;;0.50;0.30;;;6.00;99.90;;;;;;1963349;73;21066;-77
2021/03/13 00:49:45;;;;;;;1.20;0.40;;;6.00;99.90;;;;;;1963629;72;21074;-78
2021/03/13 00:52:11;;;;;;;0.30;0.30;;;6.00;99.90;;;;;;1963489;72;21133;-77
2021/03/13 00:54:37;;;;;;;4.30;0.35;;;6.00;99.90;;;;;;1963812;72;21472;-79
2021/03/13 00:57:03;;;;;;;1.10;0.62;;;6.00;99.90;;;;;;1964398;72;21489;-79
2021/03/13 00:59:29;;;;;;;0.20;0.20;;;6.00;99.90;;;;;;1963380;72;21531;-79
2021/03/13 01:01:55;;;;;;;1.37;0.40;;;5.80;99.90;;;;;;1964086;72;21132;-80
2021/03/13 01:04:24;;;;;;;1.17;0.17;;;5.80;99.90;;;;;;1962531;73;21062;-79
2021/03/13 01:06:49;;;;;;;2.95;0.40;;;6.00;99.90;;;;;;1962540;72;21175;-78
2021/03/13 01:09:16;;;;;;;0.42;0.42;;;6.20;99.90;;;;;;1964102;72;21138;-78
2021/03/13 01:11:46;;;;;;;2.58;0.60;;;6.20;99.90;;;;;;1963883;72;21031;-78
2021/03/13 01:14:10;;;;;;;1.95;0.28;;;6.10;99.90;;;;;;1959650;73;21454;-78
2021/03/13 01:16:42;;;;;;;2.60;0.40;;;6.10;99.90;;;;;;1963112;72;21493;-78
2021/03/13 01:19:08;;;;;;;0.53;0.40;;;6.00;99.90;;;;;;1962499;72;21035;-78
2021/03/13 01:21:34;;;;;;;1.32;0.20;;;6.00;99.90;;;;;;1963513;73;21065;-79
2021/03/13 01:24:01;;;;;;;2.05;0.30;;;6.00;99.90;;;;;;1962653;72;21058;-79
2021/03/13 01:26:27;;;;;;;1.92;0.28;;;6.00;99.90;;;;;;1962646;73;21081;-79
2021/03/13 01:28:53;;;;;;;0.08;0.08;;;5.90;99.90;;;;;;1962698;72;21127;-78
2021/03/13 01:31:19;;;;;;;1.98;0.28;;;5.80;99.90;;;;;;1963602;72;21155;-79
2021/03/13 01:33:45;;;;;;;0.42;0.25;;;5.70;99.90;;;;;;1963870;72;21086;-78
2021/03/13 01:36:11;;;;;;;0.20;0.20;;;5.70;99.90;;;;;;1963500;72;21062;-78
2021/03/13 01:38:38;;;;;;;0.72;0.30;;;5.70;99.90;;;;;;1963284;72;21183;-78
2021/03/13 01:41:04;;;;;;;0.23;0.23;;;5.70;99.90;;;;;;1963092;72;21035;-78
2021/03/13 01:43:30;;;;;;;0.10;0.10;;;5.60;99.90;;;;;;1962690;73;21058;-78
2021/03/13 01:45:56;;;;;;;0.42;0.30;;;5.70;99.90;;;;;;1964363;72;21106;-78
2021/03/13 01:48:22;;;;;;;0.20;0.20;;;5.70;99.90;;;;;;1963769;72;21073;-78
2021/03/13 01:50:51;;;;;;;0.25;0.25;;;5.70;99.90;;;;;;1964075;72;21066;-78
2021/03/13 01:53:17;;;;;;;0.10;0.10;;;5.60;99.90;;;;;;1963417;72;21117;-78
2021/03/13 01:55:43;;;;;;;0.60;0.10;;;5.60;99.90;;;;;;1962453;72;21077;-78
2021/03/13 01:58:09;;;;;;;1.65;0.35;;;5.60;99.90;;;;;;1963872;72;21078;-78
2021/03/13 02:00:36;;;;;;;0.10;0.10;;;5.70;99.90;;;;;;1963028;72;21466;-78
2021/03/13 02:03:02;;;;;;;1.40;0.30;;;5.60;99.90;;;;;;1963467;72;21403;-77
2021/03/13 02:05:28;;;;;;;0.78;0.30;;;5.60;99.90;;;;;;1963152;72;21490;-78
2021/03/13 02:07:54;;;;;;;0.68;0.28;;;5.50;99.90;;;;;;1963321;72;21131;-78
2021/03/13 02:10:20;;;;;;;0.10;0.10;;;5.60;99.90;;;;;;1964195;72;21066;-78
2021/03/13 02:12:46;;;;;;;0.20;0.20;;;5.60;99.90;;;;;;1962485;72;21156;-77
2021/03/13 02:15:12;;;;;;;0.20;0.20;;;5.50;99.90;;;;;;1963910;72;21061;-77
2021/03/13 02:17:38;;;;;;;0.25;0.20;;;5.50;99.90;;;;;;1962657;73;21027;-78
2021/03/13 02:20:04;;;;;;;0.60;0.23;;;5.40;99.90;;;;;;1964899;72;21065;-78
2021/03/13 02:22:31;;;;;;;2.42;0.30;;;5.40;99.90;;;;;;1963173;72;21070;-77
2021/03/13 02:24:57;;;;;;;1.95;0.40;;;5.30;99.90;;;;;;1962923;72;21070;-78
2021/03/13 02:27:23;;;;;;;0.88;0.25;;;5.30;99.90;;;;;;1963466;72;21139;-77
2021/03/13 02:29:49;;;;;;;0.37;0.37;;;5.20;99.90;;;;;;1963505;72;21075;-78
2021/03/13 02:32:15;;;;;;;0.47;0.30;;;5.20;99.90;;;;;;1963510;72;21031;-78
2021/03/13 02:34:41;;;;;;;0.72;0.40;;;5.20;99.90;;;;;;1962487;72;21066;-77
2021/03/13 02:37:07;;;;;;;0.82;0.37;;;5.20;99.90;;;;;;1962411;72;21242;-77
2021/03/13 02:39:33;;;;;;;0.47;0.25;;;5.20;99.90;;;;;;1963291;72;21535;-77
2021/03/13 02:42:00;;;;;;;0.65;0.33;;;5.10;99.90;;;;;;1963788;72;21488;-77
2021/03/13 02:44:26;;;;;;;1.10;0.60;;;5.10;99.90;;;;;;1964297;72;21148;-77
2021/03/13 02:46:52;;;;;;;1.05;0.40;;;5.10;99.90;;;;;;1963043;73;21139;-77
2021/03/13 02:49:18;;;;;;;1.32;0.70;;;5.20;99.90;;;;;;1962338;72;21160;-77
2021/03/13 02:51:44;;;;;;;1.15;0.35;;;5.20;99.90;;;;;;1962930;72;21025;-77
2021/03/13 02:54:11;;;;;;;0.65;0.42;;;5.30;99.90;;;;;;1963067;73;21531;-78
2021/03/13 02:56:37;;;;;;;0.70;0.40;;;5.40;99.90;;;;;;1963172;72;21109;-77
2021/03/13 02:59:03;;;;;;;2.77;0.75;;;5.50;99.90;;;;;;1964333;72;21095;-78
2021/03/13 03:01:29;;;;;;;2.70;0.47;;;5.70;99.90;;;;;;1964124;72;21066;-78
2021/03/13 03:03:55;;;;;;;0.30;0.30;;;5.70;99.90;;;;;;1963644;72;21066;-77
2021/03/13 03:06:21;;;;;;;2.40;0.45;;;5.70;99.90;;;;;;1963397;73;21160;-77
2021/03/13 03:08:47;;;;;;;2.30;0.62;;;5.90;99.90;;;;;;1962464;73;21062;-77
2021/03/13 03:11:14;;;;;;;1.45;0.40;;;5.90;99.90;;;;;;1962722;72;21072;-78
2021/03/13 03:13:40;;;;;;;0.82;0.20;;;5.80;99.90;;;;;;1964654;72;21072;-77
2021/03/13 03:16:06;;;;;;;1.07;0.50;;;5.80;99.90;;;;;;1964600;72;21551;-78
2021/03/13 03:18:32;;;;;;;0.90;0.20;;;6.10;99.90;;;;;;1964103;72;21466;-77
2021/03/13 03:20:58;;;;;;;4.58;0.75;;;6.30;99.90;;;;;;1963253;72;21472;-77
2021/03/13 03:23:24;;;;;;;2.75;0.72;;;6.40;99.90;;;;;;1963862;72;21427;-76
2021/03/13 03:25:50;;;;;;;0.95;0.40;;;6.40;99.90;;;;;;1963491;72;21070;-76
2021/03/13 03:28:18;;;;;;;2.60;0.53;;;6.50;99.90;;;;;;1963411;73;21180;-76
2021/03/13 03:30:46;;;;;;;1.37;0.20;;;6.50;99.90;;;;;;1963632;72;21077;-77
2021/03/13 03:33:12;;;;;;;3.40;0.60;;;6.60;99.90;;;;;;1963907;72;21174;-77
2021/03/13 03:35:38;;;;;;;2.05;0.72;;;6.70;99.90;;;;;;1962510;72;21136;-76
2021/03/13 03:38:04;;;;;;;0.20;0.20;;;6.60;99.90;;;;;;1963608;72;21069;-77
2021/03/13 03:40:30;;;;;;;0.78;0.25;;;6.60;99.90;;;;;;1964067;72;21057;-76
2021/03/13 03:42:56;;;;;;;6.55;0.40;;;6.60;99.90;;;;;;1963178;73;21058;-76
2021/03/13 03:45:22;;;;;;;0.55;0.40;;;6.50;99.90;;;;;;1963181;72;21154;-76
2021/03/13 03:47:48;;;;;;;1.60;0.50;;;6.40;99.90;;;;;;1964250;72;21485;-76
2021/03/13 03:50:14;;;;;;;2.20;0.30;;;6.40;99.90;;;;;;1963276;72;21463;-76
2021/03/13 03:52:41;;;;;;;2.35;0.78;;;6.40;99.90;;;;;;1964001;72;21467;-76
2021/03/13 03:55:07;;;;;;;0.47;0.40;;;6.40;99.90;;;;;;1963586;72;21066;-77
2021/03/13 03:57:33;;;;;;;8.28;0.57;;;6.40;99.90;;;;;;1963448;72;21147;-76
2021/03/13 03:59:59;;;;;;;5.05;0.50;;;6.40;99.90;;;;;;1963582;72;21062;-76
2021/03/13 04:02:25;;;;;;;0.72;0.25;;;6.50;99.90;;;;;;1964536;72;21070;-76
2021/03/13 04:04:51;;;;;;;0.57;0.30;;;6.50;99.90;;;;;;1962763;72;21085;-77
2021/03/13 04:07:18;;;;;;;3.02;0.55;;;6.50;99.90;;;;;;1963406;72;21147;-76
2021/03/13 04:09:44;;;;;;;0.65;0.33;;;6.50;99.90;;;;;;1963934;72;21035;-76
2021/03/13 04:12:10;;;;;;;1.85;0.30;;;6.50;99.90;;;;;;1965310;72;21691;-76
2021/03/13 04:14:36;;;;;;;0.93;0.40;;;6.50;99.90;;;;;;1962858;72;21426;-76
2021/03/13 04:17:02;;;;;;;0.68;0.37;;;6.50;99.90;;;;;;1964114;72;21596;-75
2021/03/13 04:19:28;;;;;;;0.50;0.37;;;6.50;99.90;;;;;;1963304;73;21146;-75
2021/03/13 04:21:54;;;;;;;0.62;0.30;;;6.50;99.90;;;;;;1963292;72;21164;-75
2021/03/13 04:24:20;;;;;;;0.42;0.42;;;6.60;99.90;;;;;;1962886;72;21035;-75
2021/03/13 04:26:47;;;;;;;0.68;0.65;;;6.50;99.90;;;;;;1963464;72;21074;-75
2021/03/13 04:29:13;;;;;;;0.75;0.40;;;6.60;99.90;;;;;;1962585;72;21143;-75
2021/03/13 04:31:39;;;;;;;1.47;0.70;;;6.60;99.90;;;;;;1963159;72;21078;-75
2021/03/13 04:34:05;;;;;;;0.42;0.37;;;6.50;99.90;;;;;;1964076;72;21062;-76
2021/03/13 04:36:32;;;;;;;1.82;0.23;;;6.60;99.90;;;;;;1964304;72;21062;-74
2021/03/13 04:38:58;;;;;;;6.42;0.80;;;6.60;99.90;;;;;;1965049;72;21140;-76
2021/03/13 04:41:24;;;;;;;0.40;0.40;;;6.70;99.90;;;;;;1963425;72;21144;-76
2021/03/13 04:43:50;;;;;;;0.98;0.45;;;6.70;99.90;;;;;;1962687;73;21031;-76
2021/03/13 04:46:17;;;;;;;0.55;0.35;;;6.70;99.90;;;;;;1963471;72;21057;-75
2021/03/13 04:48:43;;;;;;;2.98;0.70;;;6.80;99.90;;;;;;1963119;72;21147;-75
2021/03/13 04:51:09;;;;;;;2.33;0.50;;;6.90;99.90;;;;;;1963773;72;21070;-76
2021/03/13 04:53:35;;;;;;;0.98;0.50;;;6.90;99.90;;;;;;1963423;72;21050;-75
2021/03/13 04:56:01;;;;;;;2.20;0.60;;;6.90;99.90;;;;;;1964279;72;21065;-75
2021/03/13 04:58:29;;;;;;;2.47;0.57;;;6.90;99.90;;;;;;1964362;72;21410;-75
2021/03/13 05:00:55;;;;;;;1.70;0.40;;;6.90;99.90;;;;;;1963997;72;21156;-76
2021/03/13 05:03:21;;;;;;;2.05;0.78;;;7.10;99.90;;;;;;1963733;72;21070;-75
2021/03/13 05:05:47;;;;;;;5.40;0.65;;;7.00;99.90;;;;;;1964388;72;21066;-75
2021/03/13 05:08:13;;;;;;;0.55;0.37;;;7.10;99.90;;;;;;1963199;72;21062;-75
2021/03/13 05:10:39;;;;;;;2.15;0.70;;;7.00;99.90;;;;;;1964628;72;21485;-75
2021/03/13 05:13:06;;;;;;;2.10;0.60;;;6.90;99.90;;;;;;1963619;72;21465;-75
2021/03/13 05:15:32;;;;;;;1.57;0.40;;;6.90;99.90;;;;;;1964000;72;21472;-75
2021/03/13 05:17:58;;;;;;;0.90;0.35;;;6.90;99.90;;;;;;1962528;73;21089;-75
2021/03/13 05:20:24;;;;;;;1.17;0.40;;;7.00;99.90;;;;;;1963805;72;21064;-75
2021/03/13 05:22:50;;;;;;;1.10;0.30;;;7.00;99.90;;;;;;1964131;72;21147;-75
2021/03/13 05:25:16;;;;;;;3.33;0.40;;;7.00;99.90;;;;;;1963188;72;21054;-75
2021/03/13 05:27:42;;;;;;;6.45;0.60;;;7.10;99.90;;;;;;1963927;72;21229;-74
2021/03/13 05:30:08;;;;;;;6.60;0.95;;;7.20;99.90;;;;;;1963282;72;21078;-74
2021/03/13 05:32:35;;;;;;;1.07;0.30;;;7.20;99.90;;;;;;1962707;72;21058;-75
2021/03/13 05:35:01;;;;;;;2.27;0.55;;;7.20;99.90;;;;;;1962917;73;21131;-76
2021/03/13 05:37:27;;;;;;;1.95;0.50;;;7.40;99.90;;;;;;1963417;72;21191;-75
2021/03/13 05:39:53;;;;;;;0.20;0.20;;;7.50;99.90;;;;;;1963093;72;21069;-75
2021/03/13 05:42:19;;;;;;;0.62;0.30;;;7.50;99.90;;;;;;1962622;72;21132;-75
2021/03/13 05:44:46;;;;;;;0.70;0.45;;;7.60;99.90;;;;;;1962420;72;21055;-75
2021/03/13 05:47:12;;;;;;;4.53;0.60;;;7.70;99.90;;;;;;1963536;72;21035;-74
2021/03/13 05:49:38;;;;;;;1.45;0.53;;;7.60;99.90;;;;;;1941585;73;21128;-74
2021/03/13 05:52:04;;;;;;;6.55;0.40;;;7.60;99.90;;;;;;1964493;72;21062;-75
2021/03/13 05:54:30;;;;;;;0.55;0.30;;;7.60;99.90;;;;;;1965342;72;21501;-76
2021/03/13 05:56:58;;;;;;;0.30;0.30;;;7.70;99.90;;;;;;1963516;72;21140;-75
2021/03/13 05:59:24;;;;;;;0.85;0.23;;;7.80;99.90;;;;;;1961908;72;21150;-74
2021/03/13 06:01:50;;;;;;;0.10;0.10;;;7.90;99.90;;;;;;1962090;72;21563;-76
2021/03/13 06:04:16;;;;;;;1.60;0.30;;;8.00;99.90;;;;;;1962043;72;21384;-75
2021/03/13 06:06:42;;;;;;;0.28;0.28;;;8.00;99.90;;;;;;1962219;72;21466;-76
2021/03/13 06:09:10;;;;;;;0.10;0.10;;;8.10;99.90;;;;;;1961908;72;21260;-76
2021/03/13 06:11:36;;;;;;;0.25;0.23;;;8.10;99.90;;;;;;1962523;72;21086;-75
2021/03/13 06:14:02;;;;;;;0.90;0.30;;;8.00;99.90;;;;;;1962495;72;21074;-75
2021/03/13 06:16:32;;;;;;;3.50;0.45;;;8.00;99.90;;;;;;1963079;72;21195;-77
2021/03/13 06:18:58;;;;;;;0.65;0.20;;;7.90;99.90;;;;;;1962869;72;21162;-76
2021/03/13 06:21:24;;;;;;;0.62;0.35;;;7.90;99.90;;;;;;1962799;72;21159;-77
2021/03/13 06:23:50;;;;;;;0.28;0.23;;;7.80;99.90;;;;;;1961743;72;21020;-82
2021/03/13 06:26:25;;;;;;;2.37;0.37;;;7.70;99.90;;;;;;1961918;72;21074;-78
2021/03/13 06:28:50;;;;;;;0.10;0.10;;;7.80;99.90;;;;;;1962797;72;21084;-79
2021/03/13 06:31:17;;;;;;;4.33;0.40;;;7.80;99.90;;;;;;1964351;72;21069;-79
2021/03/13 06:33:43;;;;;;;0.50;0.20;;;7.90;99.90;;;;;;1963123;72;21139;-78
2021/03/13 06:36:09;;;;;;;0.60;0.30;;;7.90;99.90;;;;;;1962514;73;21131;-77
2021/03/13 06:38:35;;;;;;;0.20;0.20;;;7.90;99.90;;;;;;1962799;72;21148;-76
2021/03/13 06:41:02;;;;;;;1.67;0.55;;;8.00;99.90;;;;;;1962789;72;21148;-77
2021/03/13 06:43:28;;;;;;;2.65;0.75;;;8.10;99.90;;;;;;1964696;72;21080;-77
2021/03/13 06:45:54;;;;;;;0.17;0.17;;;8.10;99.90;;;;;;1963072;72;21019;-77
2021/03/13 06:48:20;;;;;;;3.90;0.55;;;8.10;99.90;;;;;;1963527;72;21143;-76
2021/03/13 06:50:48;;;;;;;0.35;0.30;;;8.20;99.90;;;;;;1961974;72;21148;-76
2021/03/13 06:53:15;;;;;;;1.75;0.40;;;8.20;99.90;;;;;;1961736;72;21078;-76
2021/03/13 06:55:41;;;;;;;1.75;0.30;;;8.20;99.90;;;;;;1963301;72;21058;-77
2021/03/13 06:58:08;;;;;;;1.47;0.50;;;8.30;99.90;;;;;;1962407;72;21070;-77
2021/03/13 07:00:35;;;;;;;0.85;0.33;;;8.40;99.90;;;;;;1962416;72;21126;-76
2021/03/13 07:03:01;;;;;;;1.15;0.50;;;8.50;99.90;;;;;;1962028;72;21128;-77
2021/03/13 07:05:27;;;;;;;1.07;0.60;;;8.60;99.90;;;;;;1962915;72;21058;-77
2021/03/13 07:07:53;;;;;;;0.33;0.30;;;8.50;99.90;;;;;;1962761;73;21038;-76
2021/03/13 07:10:19;;;;;;;0.65;0.30;;;8.60;99.90;;;;;;1963431;72;21121;-77
2021/03/13 07:12:45;;;;;;;1.50;0.30;;;8.70;99.90;;;;;;1962415;72;21135;-77
2021/03/13 07:15:12;;;;;;;0.42;0.28;;;8.70;99.90;;;;;;1962730;73;21195;-74
2021/03/13 07:17:38;;;;;;;1.40;0.30;;;8.80;99.90;;;;;;1963303;72;21324;-76
2021/03/13 07:20:04;;;;;;;0.65;0.30;;;8.90;99.90;;;;;;1962417;72;21066;-79
2021/03/13 07:22:30;;;;;;;4.00;0.65;;;8.90;99.90;;;;;;1961984;73;21065;-77
2021/03/13 07:24:56;;;;;;;0.20;0.20;;;9.00;99.90;;;;;;1962421;72;21135;-77
2021/03/13 07:27:23;;;;;;;1.35;0.30;;;9.00;99.90;;;;;;1962429;72;21070;-77
2021/03/13 07:29:50;;;;;;;1.20;0.65;;;9.10;99.90;;;;;;1962652;72;21110;-75
2021/03/13 07:32:17;;;;;;;1.05;0.35;;;9.10;99.90;;;;;;1962902;72;21560;-78
2021/03/13 07:34:43;;;;;;;0.88;0.45;;;9.10;99.90;;;;;;1961687;72;21054;-77
2021/03/13 07:37:09;;;;;;;1.60;0.50;;;9.10;99.90;;;;;;1963046;72;21075;-78
2021/03/13 07:39:35;;;;;;;2.00;0.45;;;9.20;99.90;;;;;;1961711;72;21104;-77
2021/03/13 07:42:01;;;;;;;1.20;0.40;;;9.40;99.90;;;;;;1961901;73;21042;-77
2021/03/13 07:44:27;;;;;;;1.02;0.47;;;9.50;99.90;;;;;;1962857;72;21069;-79
2021/03/13 07:46:53;;;;;;;0.53;0.40;;;9.60;99.90;;;;;;1963483;72;21225;-79
2021/03/13 07:49:20;;;;;;;0.30;0.30;;;9.50;99.90;;;;;;1962653;72;21147;-79
2021/03/13 07:51:46;;;;;;;4.60;0.30;;;9.50;99.90;;;;;;1962400;73;21019;-77
2021/03/13 07:54:12;;;;;;;0.60;0.40;;;9.60;99.90;;;;;;1961854;73;21534;-78
2021/03/13 07:56:38;;;;;;;2.42;0.40;;;9.60;99.90;;;;;;1963015;72;21481;-80
2021/03/13 07:59:04;;;;;;;2.80;0.47;;;9.60;99.90;;;;;;1963502;72;21571;-76
2021/03/13 08:01:30;;;;;;;6.22;0.47;;;9.70;99.90;;;;;;1961733;73;21559;-77
2021/03/13 08:03:56;;;;;;;0.10;0.10;;;9.70;99.90;;;;;;1964037;72;21074;-76
2021/03/13 08:06:22;;;;;;;2.62;0.33;;;9.80;99.90;;;;;;1962426;72;21081;-75
2021/03/13 08:08:50;;;;;;;1.17;0.57;;;9.80;99.90;;;;;;1962591;72;21136;-81
2021/03/13 08:11:16;;;;;;;0.88;0.47;;;9.80;99.90;;;;;;1961734;72;21482;-76
2021/03/13 08:13:42;;;;;;;0.85;0.35;;;9.80;99.90;;;;;;1962174;72;21478;-77
2021/03/13 08:16:08;;;;;;;3.22;0.65;;;9.80;99.90;;;;;;1961997;72;21642;-76
2021/03/13 08:18:34;;;;;;;2.40;0.70;;;9.90;99.90;;;;;;1961922;72;21062;-77
2021/03/13 08:21:01;;;;;;;1.85;0.25;;;10.00;99.90;;;;;;1962982;72;21031;-74
2021/03/13 08:23:27;;;;;;;2.10;0.55;;;10.10;99.90;;;;;;1962122;72;21128;-84
2021/03/13 08:25:53;;;;;;;2.50;0.50;;;10.20;99.90;;;;;;1963369;72;21060;-84
2021/03/13 08:28:19;;;;;;;2.47;0.13;;;10.20;99.90;;;;;;1962696;72;21117;-77
2021/03/13 08:30:45;;;;;;;6.12;0.53;;;10.30;99.90;;;;;;1961824;73;21122;-74
2021/03/13 08:33:11;;;;;;;1.65;0.30;;;10.40;99.90;;;;;;1962695;72;21143;-82
2021/03/13 08:35:39;;;;;;;2.02;0.30;;;10.40;99.90;;;;;;1963490;72;21142;-78
2021/03/13 08:38:05;;;;;;;1.05;0.28;;;10.40;99.90;;;;;;1963618;72;21216;-78
2021/03/13 08:40:31;;;;;;;1.07;0.35;;;10.50;99.90;;;;;;1963317;72;21112;-80
2021/03/13 08:42:57;;;;;;;1.22;0.30;;;10.60;99.90;;;;;;1961757;73;21128;-81
2021/03/13 08:45:25;;;;;;;0.42;0.20;;;10.70;99.90;;;;;;1963150;72;21126;-80
2021/03/13 08:47:54;;;;;;;0.62;0.23;;;10.80;99.90;;;;;;1961988;72;21216;-80
2021/03/13 08:50:20;;;;;;;1.87;0.42;;;11.00;99.90;;;;;;1963762;72;21421;-81
2021/03/13 08:52:46;;;;;;;3.85;0.53;;;11.20;99.90;;;;;;1962203;72;21469;-82
2021/03/13 08:55:12;;;;;;;0.68;0.37;;;11.30;99.90;;;;;;1962109;72;21539;-73
2021/03/13 08:57:42;;;;;;;2.05;0.30;;;11.30;99.90;;;;;;1963582;72;21035;-74
2021/03/13 09:00:09;;;;;;;0.37;0.28;;;11.20;99.90;;;;;;1952146;71;21212;-80
2021/03/13 09:02:36;;;;;;;0.47;0.20;;;11.10;99.90;;;;;;1984057;71;21167;-79
2021/03/13 09:05:02;;;;;;;2.17;0.40;;;11.20;99.90;;;;;;1973870;71;21139;-80
2021/03/13 09:07:28;;;;;;;0.80;0.42;;;11.20;99.90;;;;;;1984271;72;21023;-78
2021/03/13 09:09:54;;;;;;;1.12;0.25;;;11.20;99.90;;;;;;1960480;71;21134;-80
2021/03/13 09:12:20;;;;;;;2.25;0.20;;;11.30;99.90;;;;;;1978958;71;21128;-79
2021/03/13 09:14:46;;;;;;;4.03;0.40;;;11.30;99.90;;;;;;1984012;71;21526;-79
2021/03/13 09:17:13;;;;;;;3.20;0.28;;;11.30;99.90;;;;;;1974254;71;21379;-81
2021/03/13 09:19:40;;;;;;;0.68;0.33;;;11.40;99.90;;;;;;1961907;71;21073;-80
2021/03/13 09:22:07;;;;;;;0.35;0.23;;;11.40;99.90;;;;;;1961986;71;21551;-75
2021/03/13 09:24:33;;;;;;;1.20;0.20;;;11.50;99.90;;;;;;1978784;71;21128;-76
2021/03/13 09:26:59;;;;;;;1.35;0.20;;;11.50;99.90;;;;;;1978173;71;21131;-75
2021/03/13 09:29:25;;;;;;;2.08;0.55;;;11.60;99.90;;;;;;1970689;72;21058;-79
2021/03/13 09:31:51;;;;;;;2.08;0.30;;;11.60;99.90;;;;;;1984076;72;21023;-82
2021/03/13 09:34:17;;;;;;;0.57;0.40;;;11.70;99.90;;;;;;1970907;71;21130;-79
2021/03/13 09:36:45;;;;;;;0.85;0.30;;;11.70;99.90;;;;;;1966477;71;21123;-78
2021/03/13 09:39:11;;;;;;;0.40;0.30;;;11.70;99.90;;;;;;1971093;71;21061;-77
2021/03/13 09:41:38;;;;;;;0.62;0.20;;;11.80;99.90;;;;;;1957110;71;21119;-78
2021/03/13 09:44:04;;;;;;;1.57;0.40;;;12.00;99.90;;;;;;1972849;71;21187;-82
2021/03/13 09:46:30;;;;;;;1.45;0.20;;;11.90;99.90;;;;;;1984398;72;21450;-78
2021/03/13 09:48:57;;;;;;;1.20;0.33;;;11.90;99.90;;;;;;1984234;71;21128;-78
2021/03/13 09:51:23;;;;;;;2.72;0.50;;;11.90;99.90;;;;;;1964174;71;21090;-79
2021/03/13 09:53:49;;;;;;;1.17;0.30;;;12.00;99.90;;;;;;1979168;71;21128;-80
2021/03/13 09:56:15;;;;;;;0.20;0.20;;;12.10;99.90;;;;;;1964349;71;21115;-76
2021/03/13 09:58:41;;;;;;;3.95;0.37;;;12.20;99.90;;;;;;1978355;71;21058;-75
2021/03/13 10:01:07;;;;;;;0.80;0.45;;;12.30;99.90;;;;;;1976494;71;21148;-74
2021/03/13 10:03:33;;;;;;;3.00;0.20;;;12.20;99.90;;;;;;1983943;71;21023;-72
2021/03/13 10:06:00;;;;;;;0.90;0.47;;;12.10;99.90;;;;;;1979720;71;21057;-78
2021/03/13 10:08:26;;;;;;;4.15;0.30;;;12.00;99.90;;;;;;1976885;71;21618;-77
2021/03/13 10:10:52;;;;;;;0.42;0.20;;;12.00;99.90;;;;;;1981641;72;21559;-79
2021/03/13 10:13:18;;;;;;;0.10;0.10;;;12.10;99.90;;;;;;1977579;71;21485;-77
2021/03/13 10:15:44;;;;;;;0.40;0.40;;;12.00;99.90;;;;;;1967210;71;21503;-76
2021/03/13 10:18:14;;;;;;;0.20;0.15;;;11.80;99.90;;;;;;1964147;71;21066;-77
2021/03/13 10:20:38;;;;;;;1.02;0.20;;;11.70;99.90;;;;;;1973610;72;21216;-78
2021/03/13 10:23:04;;;;;;;0.47;0.30;;;11.70;99.90;;;;;;1957427;71;21120;-79
2021/03/13 10:25:30;;;;;;;1.92;0.65;;;11.70;99.90;;;;;;1966536;71;21057;-83
2021/03/13 10:27:56;;;;;;;0.90;0.30;;;11.70;99.90;;;;;;1957332;73;21058;-78
2021/03/13 10:30:22;;;;;;;0.90;0.33;;;11.70;99.90;;;;;;1966872;71;21559;-84
2021/03/13 10:32:49;;;;;;;1.02;0.28;;;11.70;99.90;;;;;;1961677;71;21451;-76
2021/03/13 10:35:16;;;;;;;8.28;0.40;;;11.70;99.90;;;;;;1957428;72;21465;-76
2021/03/13 10:37:42;;;;;;;0.98;0.30;;;11.70;99.90;;;;;;1957347;71;21077;-76
2021/03/13 10:40:08;;;;;;;0.10;0.10;;;11.70;99.90;;;;;;1961684;71;21466;-76
2021/03/13 10:42:35;;;;;;;0.85;0.30;;;11.70;99.90;;;;;;1957266;71;21481;-76
2021/03/13 10:45:01;;;;;;;0.33;0.20;;;11.70;99.90;;;;;;1981059;71;21071;-76
2021/03/13 10:47:28;;;;;;;1.00;0.20;;;11.70;99.90;;;;;;1968190;71;21139;-76
2021/03/13 10:49:54;;;;;;;2.62;0.40;;;11.80;99.90;;;;;;1971793;71;21709;-75
2021/03/13 10:52:20;;;;;;;5.00;0.40;;;11.70;99.90;;;;;;1982662;71;21466;-78
2021/03/13 10:54:46;;;;;;;0.25;0.20;;;11.80;99.90;;;;;;1984396;72;21571;-77
2021/03/13 10:57:12;;;;;;;0.75;0.20;;;11.90;99.90;;;;;;1984360;72;21062;-77
2021/03/13 10:59:38;;;;;;;1.82;0.20;;;11.80;99.90;;;;;;1976581;71;21031;-75
2021/03/13 11:02:04;;;;;;;0.23;0.23;;;11.80;99.90;;;;;;1957284;71;21127;-76
2021/03/13 11:04:32;;;;;;;0.10;0.10;;;11.80;99.90;;;;;;1975428;72;21119;-75
2021/03/13 11:06:59;;;;;;;0.68;0.33;;;11.80;99.90;;;;;;1958464;71;21143;-74
2021/03/13 11:09:25;;;;;;;1.00;0.30;;;11.90;99.90;;;;;;1971668;72;21062;-76
2021/03/13 11:11:51;;;;;;;0.10;0.10;;;11.90;99.90;;;;;;1979286;71;21059;-74
2021/03/13 11:14:18;;;;;;;0.90;0.15;;;11.90;99.90;;;;;;1984213;71;21043;-74
2021/03/13 11:16:44;;;;;;;1.27;0.30;;;11.90;99.90;;;;;;1962807;71;21097;-74
2021/03/13 11:19:11;;;;;;;1.75;0.40;;;11.90;99.90;;;;;;1961818;71;21065;-73
2021/03/13 11:21:37;;;;;;;0.10;0.10;;;11.90;99.90;;;;;;1983395;71;21128;-73
2021/03/13 11:24:04;;;;;;;0.50;0.30;;;11.90;99.90;;;;;;1984184;72;21162;-72
2021/03/13 11:26:30;;;;;;;0.40;0.13;;;12.00;99.90;;;;;;1968425;71;21030;-72
2021/03/13 11:28:56;;;;;;;0.10;0.10;;;12.00;99.90;;;;;;1957254;71;21213;-73
2021/03/13 11:31:22;;;;;;;0.30;0.20;;;12.00;99.90;;;;;;1969092;71;21071;-74
2021/03/13 11:33:48;;;;;;;0.10;0.10;;;12.10;99.90;;;;;;1979825;71;21054;-74
2021/03/13 11:36:14;;;;;;;0.42;0.25;;;12.20;99.90;;;;;;1979515;71;21118;-75
2021/03/13 11:38:40;;;;;;;0.23;0.20;;;12.20;99.90;;;;;;1984409;72;21031;-77
2021/03/13 11:41:07;;;;;;;1.60;0.30;;;12.30;99.90;;;;;;1968115;71;21120;-79
2021/03/13 11:43:33;;;;;;;1.80;0.30;;;12.40;99.90;;;;;;1976940;71;21063;-78
2021/03/13 11:45:59;;;;;;;0.37;0.20;;;12.30;99.90;;;;;;1983517;71;21458;-75
2021/03/13 11:48:25;;;;;;;3.42;0.68;;;12.20;99.90;;;;;;1976409;71;21558;-75
2021/03/13 11:50:51;;;;;;;0.95;0.25;;;12.20;99.90;;;;;;1978643;71;21081;-73
2021/03/13 11:53:18;;;;;;;0.20;0.20;;;12.20;99.90;;;;;;1978180;71;21050;-75
2021/03/13 11:55:44;;;;;;;0.50;0.20;;;12.30;99.90;;;;;;1962050;71;21144;-77
2021/03/13 11:58:11;;;;;;;2.37;0.10;;;12.40;99.90;;;;;;1970152;71;21176;-76
2021/03/13 12:00:37;;;;;;;0.13;0.13;;;12.40;99.90;;;;;;1983294;72;21123;-76
2021/03/13 12:03:06;;;;;;;0.20;0.20;;;12.30;99.90;;;;;;1957388;71;21030;-76
2021/03/13 12:05:35;;;;;;;5.95;0.20;;;12.30;99.90;;;;;;1986332;71;21471;-78
2021/03/13 12:08:01;;;;;;;0.30;0.30;;;12.30;99.90;;;;;;1963683;71;21031;-76
2021/03/13 12:10:27;;;;;;;0.47;0.30;;;12.30;99.90;;;;;;1980969;71;21027;-75
2021/03/13 12:12:55;;;;;;;2.65;0.55;;;12.30;99.90;;;;;;1982966;71;21074;-76
2021/03/13 12:15:22;;;;;;;0.30;0.30;;;12.40;99.90;;;;;;1967265;71;21176;-74
2021/03/13 12:17:49;;;;;;;1.17;0.28;;;12.30;99.90;;;;;;1974340;71;21066;-76
2021/03/13 12:20:15;;;;;;;0.70;0.30;;;12.30;99.90;;;;;;1977201;71;21109;-75
2021/03/13 12:22:41;;;;;;;0.65;0.20;;;12.20;99.90;;;;;;1982365;71;21036;-75
2021/03/13 12:25:08;;;;;;;0.25;0.25;;;12.20;99.90;;;;;;1981651;71;21062;-75
2021/03/13 12:27:40;;;;;;;0.40;0.35;;;12.20;99.90;;;;;;1973636;71;21098;-76
2021/03/13 12:30:06;;;;;;;0.75;0.20;;;12.30;99.90;;;;;;1984438;71;21053;-74
2021/03/13 12:32:32;;;;;;;0.95;0.30;;;12.30;99.90;;;;;;1975358;71;21057;-74
2021/03/13 12:35:00;;;;;;;4.78;0.20;;;12.30;99.90;;;;;;1980045;71;21051;-74
2021/03/13 12:37:26;;;;;;;0.72;0.23;;;12.30;99.90;;;;;;1974332;71;21493;-75
2021/03/13 12:39:53;;;;;;;1.75;0.30;;;12.20;99.90;;;;;;1968310;71;21476;-75
2021/03/13 12:42:19;;;;;;;0.15;0.10;;;12.20;99.90;;;;;;1957732;71;21064;-76
2021/03/13 12:44:45;;;;;;;0.23;0.15;;;12.30;99.90;;;;;;1978830;71;21090;-75
2021/03/13 12:47:11;;;;;;;0.37;0.20;;;12.30;99.90;;;;;;1980190;71;21067;-76